Time;durP1;ratioP1;P1;durP2;ratioP2;P2;SDS_P1;SDS_P2;PMS_P1;PMS_P2;Temp;Humidity;BMP_temperature;BMP_pressure;BME280_temperature;BME280_humidity;BME280_pressure;Samples;Min_cycle;Max_cycle;Signal;HPM_P1;HPM_P2
2022/05/14 18:53:37;;;;;;;4.95;1.85;;;18.50;85.10;;;;;;5175028;27;20753;-80
2022/05/14 18:56:04;;;;;;;3.33;1.80;;;17.70;85.70;;;;;;5175550;27;20121;-79
2022/05/14 18:58:30;;;;;;;3.60;1.80;;;17.40;85.90;;;;;;5174967;27;20568;-83
2022/05/14 19:00:56;;;;;;;3.35;1.80;;;17.30;86.40;;;;;;5176166;27;20534;-79
2022/05/14 19:03:22;;;;;;;3.60;2.05;;;17.10;85.80;;;;;;5176367;27;20467;-81
2022/05/14 19:08:32;;;;;;;5.18;2.13;;;16.90;86.50;;;;;;5092573;28;20048;-76
2022/05/14 19:10:57;;;;;;;3.20;2.25;;;16.80;87.90;;;;;;5091759;28;20037;-75
2022/05/14 19:13:23;;;;;;;4.15;2.25;;;16.60;89.00;;;;;;5091505;28;20477;-75
2022/05/14 19:15:49;;;;;;;7.15;2.72;;;16.50;90.00;;;;;;5093197;28;20033;-75
2022/05/14 19:18:16;;;;;;;4.45;2.63;;;16.40;90.30;;;;;;5092518;28;20033;-74
2022/05/14 19:20:42;;;;;;;6.35;2.40;;;16.30;91.00;;;;;;5091078;28;20037;-75
2022/05/14 19:23:18;;;;;;;7.03;2.88;;;16.30;91.30;;;;;;5091496;28;20036;-76
2022/05/14 19:25:44;;;;;;;4.55;2.33;;;16.00;91.50;;;;;;5092258;28;20025;-75
2022/05/14 19:28:12;;;;;;;13.35;2.90;;;16.00;91.90;;;;;;5091907;28;20025;-75
2022/05/14 19:30:38;;;;;;;6.50;3.08;;;15.90;92.70;;;;;;5092415;28;20465;-77
2022/05/14 19:33:07;;;;;;;4.47;2.80;;;15.90;93.00;;;;;;5094445;28;20542;-75
2022/05/14 19:35:44;;;;;;;6.88;2.60;;;15.80;93.00;;;;;;5092664;28;20673;-75
2022/05/14 19:38:17;;;;;;;4.00;2.70;;;15.80;93.10;;;;;;5094112;28;20029;-78
2022/05/14 19:40:50;;;;;;;4.00;2.50;;;15.80;93.20;;;;;;5093954;28;20125;-79
2022/05/14 19:43:23;;;;;;;3.92;2.67;;;15.70;93.50;;;;;;5094349;28;20037;-75
2022/05/14 19:45:53;;;;;;;5.15;2.75;;;15.70;93.60;;;;;;5091788;28;20025;-75
2022/05/14 19:48:19;;;;;;;4.90;2.30;;;15.60;93.80;;;;;;5091495;28;20094;-75
2022/05/14 19:50:46;;;;;;;6.70;2.90;;;15.60;94.00;;;;;;5089819;28;20037;-75
2022/05/14 19:53:14;;;;;;;6.40;3.33;;;15.60;94.10;;;;;;5091080;28;20045;-75
2022/05/14 19:55:39;;;;;;;7.55;4.22;;;15.30;94.50;;;;;;5091154;28;20410;-74
2022/05/14 19:58:07;;;;;;;8.90;3.97;;;15.30;94.60;;;;;;5091867;28;20037;-73
2022/05/14 20:00:33;;;;;;;7.22;3.65;;;15.20;94.90;;;;;;5091326;28;20037;-74
2022/05/14 20:02:58;;;;;;;7.72;4.43;;;15.20;95.20;;;;;;5088881;28;20041;-76
2022/05/14 20:05:24;;;;;;;7.07;4.55;;;15.00;95.70;;;;;;5077196;28;20033;-75
2022/05/14 20:07:50;;;;;;;8.27;4.40;;;14.90;95.90;;;;;;5077588;28;20033;-75
2022/05/14 20:10:16;;;;;;;6.22;4.07;;;14.80;96.10;;;;;;5077235;28;20116;-77
2022/05/14 20:12:41;;;;;;;6.75;3.88;;;14.70;96.30;;;;;;5077317;28;20041;-78
2022/05/14 20:15:08;;;;;;;5.18;3.78;;;14.60;96.50;;;;;;5077204;28;20032;-75
2022/05/14 20:23:08;;;;;;;6.72;5.38;;;14.40;97.70;;;;;;5077393;28;20495;-76
2022/05/14 20:25:37;;;;;;;7.95;4.25;;;14.20;97.80;;;;;;5077342;28;20033;-76
2022/05/14 20:28:03;;;;;;;6.25;3.83;;;14.20;97.90;;;;;;5077537;28;20028;-78
2022/05/14 20:30:31;;;;;;;5.10;3.13;;;14.10;98.00;;;;;;5077074;28;20402;-77
2022/05/14 20:32:56;;;;;;;4.95;3.20;;;14.10;98.20;;;;;;5077793;28;20044;-76
2022/05/14 20:35:22;;;;;;;3.92;3.30;;;14.00;98.50;;;;;;5077353;28;20467;-76
2022/05/14 20:37:47;;;;;;;3.72;3.03;;;14.00;98.60;;;;;;5077809;28;20060;-78
2022/05/14 20:40:13;;;;;;;4.53;2.97;;;13.90;99.10;;;;;;5075124;28;20041;-77
2022/05/14 20:42:38;;;;;;;3.85;2.88;;;13.90;99.70;;;;;;5077023;28;20091;-77
2022/05/14 20:45:05;;;;;;;4.68;3.20;;;13.90;99.90;;;;;;5076572;28;20033;-78
2022/05/14 20:47:36;;;;;;;5.93;3.22;;;13.80;99.80;;;;;;5076620;28;20118;-76
2022/05/14 20:50:04;;;;;;;6.82;3.60;;;13.70;99.90;;;;;;5075491;28;20029;-76
2022/05/14 20:52:30;;;;;;;6.45;3.30;;;13.60;99.60;;;;;;5076471;28;20037;-76
2022/05/14 20:54:55;;;;;;;5.97;3.70;;;13.60;99.60;;;;;;5074599;28;20028;-77
2022/05/14 20:57:22;;;;;;;5.18;3.40;;;13.50;99.60;;;;;;5077297;28;20039;-78
2022/05/14 20:59:47;;;;;;;6.47;3.25;;;13.40;99.80;;;;;;5077200;28;20036;-78
2022/05/14 21:02:13;;;;;;;5.60;3.90;;;13.40;99.90;;;;;;5092124;28;20386;-78
2022/05/14 21:04:38;;;;;;;6.75;3.83;;;13.50;99.90;;;;;;5076025;28;20033;-77
2022/05/14 21:07:04;;;;;;;6.05;3.72;;;13.50;99.90;;;;;;5074733;28;20044;-77
2022/05/14 21:09:31;;;;;;;7.15;3.55;;;13.40;99.90;;;;;;5076630;28;20496;-78
2022/05/14 21:11:56;;;;;;;6.55;3.95;;;13.40;99.90;;;;;;5075143;28;20048;-78
2022/05/14 21:14:22;;;;;;;7.75;4.00;;;13.40;99.90;;;;;;5075790;28;20490;-77
2022/05/14 21:16:48;;;;;;;5.63;3.70;;;13.40;99.90;;;;;;5075440;28;20510;-76
2022/05/14 21:19:19;;;;;;;6.93;3.15;;;13.40;99.90;;;;;;5076012;28;20095;-77
2022/05/14 21:21:47;;;;;;;7.10;2.90;;;13.30;99.90;;;;;;5076300;28;20020;-77
2022/05/14 21:24:14;;;;;;;5.20;3.05;;;13.40;99.90;;;;;;5074208;28;20053;-77
2022/05/14 21:26:41;;;;;;;4.60;3.10;;;13.40;99.90;;;;;;5075550;28;20107;-76
2022/05/14 21:29:06;;;;;;;5.80;3.20;;;13.40;99.90;;;;;;5075957;28;20033;-76
2022/05/14 21:31:34;;;;;;;7.50;3.70;;;13.50;99.90;;;;;;5076678;28;20487;-77
2022/05/14 21:39:27;;;;;;;6.22;3.90;;;13.30;99.90;;;;;;5076048;28;20033;-77
2022/05/14 21:41:53;;;;;;;6.63;4.15;;;13.20;99.90;;;;;;5077298;28;20037;-77
2022/05/14 21:44:19;;;;;;;6.72;4.55;;;13.10;99.90;;;;;;5078315;28;20017;-76
2022/05/14 21:46:44;;;;;;;6.88;4.65;;;13.00;99.90;;;;;;5075720;28;20099;-76
2022/05/14 21:49:10;;;;;;;7.50;4.18;;;12.90;99.90;;;;;;5075769;28;20040;-76
2022/05/14 21:51:36;;;;;;;7.60;4.60;;;12.80;99.90;;;;;;5074973;28;20045;-76
2022/05/14 21:54:02;;;;;;;6.13;4.53;;;12.80;99.90;;;;;;5075419;28;20032;-76
2022/05/14 21:56:28;;;;;;;5.43;4.70;;;12.70;99.90;;;;;;5075635;28;20151;-77
2022/05/14 21:58:53;;;;;;;7.32;4.22;;;12.60;99.90;;;;;;5075676;28;20094;-76
2022/05/14 22:01:31;;;;;;;6.90;3.80;;;12.50;99.90;;;;;;5075659;28;20048;-76
2022/05/14 22:04:03;;;;;;;7.30;3.85;;;12.40;99.90;;;;;;5073656;28;20033;-75
2022/05/14 22:06:32;;;;;;;6.45;4.40;;;12.40;99.90;;;;;;5074592;28;20135;-76
2022/05/14 22:08:59;;;;;;;6.03;3.85;;;12.40;99.90;;;;;;5090664;28;20033;-75
2022/05/14 22:11:25;;;;;;;6.20;3.95;;;12.40;99.90;;;;;;5075124;28;20504;-75
2022/05/14 22:13:50;;;;;;;5.50;3.53;;;12.30;99.90;;;;;;5075116;28;20039;-76
2022/05/14 22:16:16;;;;;;;8.27;3.97;;;12.30;99.90;;;;;;5073676;28;20110;-76
2022/05/14 22:18:42;;;;;;;9.25;4.20;;;12.30;99.90;;;;;;5073521;28;20449;-74
2022/05/14 22:21:08;;;;;;;6.53;3.97;;;12.30;99.90;;;;;;5075148;28;20108;-76
2022/05/14 22:23:34;;;;;;;11.02;4.43;;;12.30;99.90;;;;;;5074917;28;20095;-76
2022/05/14 22:25:59;;;;;;;5.05;3.85;;;12.30;99.90;;;;;;5074920;28;20036;-76
2022/05/14 22:28:25;;;;;;;5.85;3.50;;;12.30;99.90;;;;;;5074992;28;20041;-75
2022/05/14 22:30:51;;;;;;;5.53;3.60;;;12.20;99.90;;;;;;5074976;28;20029;-76
2022/05/14 22:33:17;;;;;;;5.93;3.92;;;12.20;99.90;;;;;;5074721;28;20331;-77
2022/05/14 22:35:43;;;;;;;4.65;3.40;;;12.20;99.90;;;;;;5074758;28;20040;-76
2022/05/14 22:38:09;;;;;;;7.95;4.40;;;12.20;99.90;;;;;;5074521;28;20036;-77
2022/05/14 22:43:19;;;;;;;8.77;3.55;;;12.00;99.90;;;;;;5074475;28;20099;-76
2022/05/14 22:45:45;;;;;;;7.82;3.80;;;12.00;99.90;;;;;;5074507;28;20029;-76
2022/05/14 22:48:12;;;;;;;5.63;3.80;;;12.00;99.90;;;;;;5074884;28;20581;-76
2022/05/14 22:50:40;;;;;;;8.48;4.38;;;12.00;99.90;;;;;;5074834;28;20044;-77
2022/05/14 22:53:06;;;;;;;8.18;4.55;;;11.90;99.90;;;;;;5074762;28;20486;-76
2022/05/14 22:55:33;;;;;;;4.82;4.13;;;11.90;99.90;;;;;;5074782;28;20451;-76
2022/05/14 22:58:02;;;;;;;6.40;3.95;;;11.90;99.90;;;;;;5074674;28;20114;-77
2022/05/14 23:00:35;;;;;;;5.03;4.03;;;11.80;99.90;;;;;;5073057;28;20034;-76
2022/05/14 23:03:01;;;;;;;5.18;4.10;;;11.80;99.90;;;;;;5074428;28;20040;-76
2022/05/14 23:05:26;;;;;;;6.13;3.85;;;11.70;99.90;;;;;;5074048;28;20037;-77
2022/05/14 23:07:52;;;;;;;6.03;4.07;;;11.60;99.90;;;;;;5073194;28;20561;-77
2022/05/14 23:10:19;;;;;;;5.43;3.78;;;11.60;99.90;;;;;;5074380;28;20036;-76
2022/05/14 23:12:46;;;;;;;5.85;3.92;;;11.60;99.90;;;;;;5072712;28;20037;-76
2022/05/14 23:15:12;;;;;;;7.15;4.00;;;11.60;99.90;;;;;;5072564;28;20033;-77
2022/05/14 23:17:38;;;;;;;7.15;4.32;;;11.50;99.90;;;;;;5072907;28;20125;-77
2022/05/14 23:20:07;;;;;;;6.65;3.90;;;11.60;99.90;;;;;;5074462;28;20033;-77
2022/05/14 23:22:34;;;;;;;5.57;4.10;;;11.60;99.90;;;;;;5074196;28;20477;-76
2022/05/14 23:25:00;;;;;;;6.25;4.00;;;11.60;99.90;;;;;;5073427;28;20048;-76
2022/05/14 23:27:27;;;;;;;6.25;4.07;;;11.60;99.90;;;;;;5074204;28;20037;-76
2022/05/14 23:29:53;;;;;;;6.47;3.78;;;11.60;99.90;;;;;;5072832;28;20117;-76
